sensor_id;sensor_type;location;lat;lon;timestamp;temperature;humidity
69533;DHT22;56729;52.036;5.332;2022-08-20T00:00:23;19.70;98.30
69533;DHT22;56729;52.036;5.332;2022-08-20T00:01:25;19.80;98.30
69533;DHT22;56729;52.036;5.332;2022-08-20T00:02:27;19.80;98.20
69533;DHT22;56729;52.036;5.332;2022-08-20T00:03:33;19.80;98.20
69533;DHT22;56729;52.036;5.332;2022-08-20T00:04:36;19.80;98.30
69533;DHT22;56729;52.036;5.332;2022-08-20T00:05:45;19.80;98.40
69533;DHT22;56729;52.036;5.332;2022-08-20T00:06:47;19.80;98.30
69533;DHT22;56729;52.036;5.332;2022-08-20T00:07:49;19.80;98.30
69533;DHT22;56729;52.036;5.332;2022-08-20T00:08:51;19.80;98.30
69533;DHT22;56729;52.036;5.332;2022-08-20T00:09:56;19.80;98.20
69533;DHT22;56729;52.036;5.332;2022-08-20T00:10:59;19.80;98.10
69533;DHT22;56729;52.036;5.332;2022-08-20T00:12:01;19.80;98.10
69533;DHT22;56729;52.036;5.332;2022-08-20T00:13:09;19.80;98.20
69533;DHT22;56729;52.036;5.332;2022-08-20T00:14:14;19.80;98.30
69533;DHT22;56729;52.036;5.332;2022-08-20T00:15:19;19.80;98.30
69533;DHT22;56729;52.036;5.332;2022-08-20T00:16:24;19.80;98.30
69533;DHT22;56729;52.036;5.332;2022-08-20T00:17:27;19.80;98.30
69533;DHT22;56729;52.036;5.332;2022-08-20T00:18:36;19.80;98.30
69533;DHT22;56729;52.036;5.332;2022-08-20T00:19:38;19.80;98.20
69533;DHT22;56729;52.036;5.332;2022-08-20T00:20:44;19.80;98.20
69533;DHT22;56729;52.036;5.332;2022-08-20T00:21:46;19.90;98.20
69533;DHT22;56729;52.036;5.332;2022-08-20T00:22:50;19.90;98.10
69533;DHT22;56729;52.036;5.332;2022-08-20T00:23:53;19.90;98.10
69533;DHT22;56729;52.036;5.332;2022-08-20T00:24:56;19.90;98.10
69533;DHT22;56729;52.036;5.332;2022-08-20T00:25:58;19.90;98.10
69533;DHT22;56729;52.036;5.332;2022-08-20T00:27:00;19.90;98.60
69533;DHT22;56729;52.036;5.332;2022-08-20T00:28:04;19.90;98.00
69533;DHT22;56729;52.036;5.332;2022-08-20T00:29:07;19.90;98.00
69533;DHT22;56729;52.036;5.332;2022-08-20T00:30:11;19.90;98.00
69533;DHT22;56729;52.036;5.332;2022-08-20T00:31:17;19.90;98.00
69533;DHT22;56729;52.036;5.332;2022-08-20T00:32:20;19.90;98.00
69533;DHT22;56729;52.036;5.332;2022-08-20T00:33:22;19.90;98.00
69533;DHT22;56729;52.036;5.332;2022-08-20T00:34:25;20.00;98.00
69533;DHT22;56729;52.036;5.332;2022-08-20T00:35:29;19.90;97.90
69533;DHT22;56729;52.036;5.332;2022-08-20T00:36:31;20.00;97.80
69533;DHT22;56729;52.036;5.332;2022-08-20T00:37:33;19.90;97.70
69533;DHT22;56729;52.036;5.332;2022-08-20T00:38:37;19.90;97.80
69533;DHT22;56729;52.036;5.332;2022-08-20T00:39:39;19.90;97.70
69533;DHT22;56729;52.036;5.332;2022-08-20T00:40:47;19.90;97.90
69533;DHT22;56729;52.036;5.332;2022-08-20T00:41:49;19.90;97.90
69533;DHT22;56729;52.036;5.332;2022-08-20T00:42:55;19.90;98.00
69533;DHT22;56729;52.036;5.332;2022-08-20T00:44:19;19.90;97.90
69533;DHT22;56729;52.036;5.332;2022-08-20T00:45:24;19.90;97.80
69533;DHT22;56729;52.036;5.332;2022-08-20T00:46:27;19.90;97.80
69533;DHT22;56729;52.036;5.332;2022-08-20T00:47:33;19.90;97.80
69533;DHT22;56729;52.036;5.332;2022-08-20T00:48:37;19.80;97.80
69533;DHT22;56729;52.036;5.332;2022-08-20T00:49:40;19.80;97.80
69533;DHT22;56729;52.036;5.332;2022-08-20T00:50:42;19.80;98.00
69533;DHT22;56729;52.036;5.332;2022-08-20T00:51:55;19.80;98.10
69533;DHT22;56729;52.036;5.332;2022-08-20T00:52:59;19.80;98.20
69533;DHT22;56729;52.036;5.332;2022-08-20T00:54:22;19.80;98.30
69533;DHT22;56729;52.036;5.332;2022-08-20T00:55:25;19.80;98.20
69533;DHT22;56729;52.036;5.332;2022-08-20T00:56:33;19.80;98.20
69533;DHT22;56729;52.036;5.332;2022-08-20T00:57:47;19.80;98.20
69533;DHT22;56729;52.036;5.332;2022-08-20T00:59:05;19.90;98.20
69533;DHT22;56729;52.036;5.332;2022-08-20T01:00:20;19.80;98.20
69533;DHT22;56729;52.036;5.332;2022-08-20T01:01:23;19.90;98.20
69533;DHT22;56729;52.036;5.332;2022-08-20T01:02:28;19.90;98.20
69533;DHT22;56729;52.036;5.332;2022-08-20T01:03:31;19.90;98.10
69533;DHT22;56729;52.036;5.332;2022-08-20T01:04:36;19.90;98.10
69533;DHT22;56729;52.036;5.332;2022-08-20T01:05:41;19.90;98.10
69533;DHT22;56729;52.036;5.332;2022-08-20T01:06:45;19.90;98.00
69533;DHT22;56729;52.036;5.332;2022-08-20T01:07:49;19.90;98.00
69533;DHT22;56729;52.036;5.332;2022-08-20T01:08:55;19.90;98.00
69533;DHT22;56729;52.036;5.332;2022-08-20T01:10:05;19.90;98.10
69533;DHT22;56729;52.036;5.332;2022-08-20T01:11:08;20.00;98.10
69533;DHT22;56729;52.036;5.332;2022-08-20T01:12:14;19.90;98.10
69533;DHT22;56729;52.036;5.332;2022-08-20T01:13:20;19.90;98.00
69533;DHT22;56729;52.036;5.332;2022-08-20T01:14:23;19.90;97.80
69533;DHT22;56729;52.036;5.332;2022-08-20T01:15:42;19.90;97.60
69533;DHT22;56729;52.036;5.332;2022-08-20T01:16:46;19.80;97.60
69533;DHT22;56729;52.036;5.332;2022-08-20T01:17:52;19.80;97.70
69533;DHT22;56729;52.036;5.332;2022-08-20T01:18:58;19.80;97.80
69533;DHT22;56729;52.036;5.332;2022-08-20T01:20:09;19.80;98.20
69533;DHT22;56729;52.036;5.332;2022-08-20T01:21:12;19.80;97.60
69533;DHT22;56729;52.036;5.332;2022-08-20T01:22:27;19.70;97.60
69533;DHT22;56729;52.036;5.332;2022-08-20T01:25:18;19.70;97.60
69533;DHT22;56729;52.036;5.332;2022-08-20T01:26:29;19.60;97.60
69533;DHT22;56729;52.036;5.332;2022-08-20T01:27:34;19.60;97.60
69533;DHT22;56729;52.036;5.332;2022-08-20T01:28:53;19.60;97.60
69533;DHT22;56729;52.036;5.332;2022-08-20T01:29:56;19.50;97.60
69533;DHT22;56729;52.036;5.332;2022-08-20T01:30:59;19.50;97.70
69533;DHT22;56729;52.036;5.332;2022-08-20T01:32:02;19.50;97.80
69533;DHT22;56729;52.036;5.332;2022-08-20T01:33:05;19.50;97.90
69533;DHT22;56729;52.036;5.332;2022-08-20T01:34:13;19.50;98.10
69533;DHT22;56729;52.036;5.332;2022-08-20T01:35:20;19.50;98.20
69533;DHT22;56729;52.036;5.332;2022-08-20T01:36:48;19.50;98.80
69533;DHT22;56729;52.036;5.332;2022-08-20T01:37:51;19.50;98.30
69533;DHT22;56729;52.036;5.332;2022-08-20T01:38:53;19.50;98.40
69533;DHT22;56729;52.036;5.332;2022-08-20T01:39:55;19.50;98.40
69533;DHT22;56729;52.036;5.332;2022-08-20T01:41:21;19.50;98.40
69533;DHT22;56729;52.036;5.332;2022-08-20T01:42:35;19.60;98.30
69533;DHT22;56729;52.036;5.332;2022-08-20T01:43:58;19.60;98.30
69533;DHT22;56729;52.036;5.332;2022-08-20T01:45:00;19.60;98.30
69533;DHT22;56729;52.036;5.332;2022-08-20T01:46:05;19.60;98.30
69533;DHT22;56729;52.036;5.332;2022-08-20T01:47:26;19.60;98.20
69533;DHT22;56729;52.036;5.332;2022-08-20T01:48:29;19.60;98.20
69533;DHT22;56729;52.036;5.332;2022-08-20T01:49:32;19.60;98.10
69533;DHT22;56729;52.036;5.332;2022-08-20T01:50:39;19.60;98.10
69533;DHT22;56729;52.036;5.332;2022-08-20T01:51:42;19.60;98.10
69533;DHT22;56729;52.036;5.332;2022-08-20T01:53:16;19.70;98.10
69533;DHT22;56729;52.036;5.332;2022-08-20T01:54:19;19.70;98.10
69533;DHT22;56729;52.036;5.332;2022-08-20T01:55:22;19.70;98.20
69533;DHT22;56729;52.036;5.332;2022-08-20T01:56:27;19.70;98.10
69533;DHT22;56729;52.036;5.332;2022-08-20T01:57:30;19.70;98.10
69533;DHT22;56729;52.036;5.332;2022-08-20T01:58:35;19.70;98.10
69533;DHT22;56729;52.036;5.332;2022-08-20T01:59:39;19.70;98.10
69533;DHT22;56729;52.036;5.332;2022-08-20T02:00:41;19.70;98.10
69533;DHT22;56729;52.036;5.332;2022-08-20T02:01:43;19.70;98.10
69533;DHT22;56729;52.036;5.332;2022-08-20T02:02:47;19.80;98.00
69533;DHT22;56729;52.036;5.332;2022-08-20T02:03:50;19.70;98.00
69533;DHT22;56729;52.036;5.332;2022-08-20T02:04:53;19.70;98.10
69533;DHT22;56729;52.036;5.332;2022-08-20T02:05:58;19.80;98.00
69533;DHT22;56729;52.036;5.332;2022-08-20T02:07:10;19.70;97.90
69533;DHT22;56729;52.036;5.332;2022-08-20T02:08:13;19.70;97.80
69533;DHT22;56729;52.036;5.332;2022-08-20T02:09:15;19.70;97.80
69533;DHT22;56729;52.036;5.332;2022-08-20T02:10:18;19.70;97.90
69533;DHT22;56729;52.036;5.332;2022-08-20T02:11:21;19.70;98.10
69533;DHT22;56729;52.036;5.332;2022-08-20T02:12:24;19.70;98.10
69533;DHT22;56729;52.036;5.332;2022-08-20T02:13:26;19.70;98.00
69533;DHT22;56729;52.036;5.332;2022-08-20T02:14:28;19.70;97.90
69533;DHT22;56729;52.036;5.332;2022-08-20T02:15:30;19.60;97.90
69533;DHT22;56729;52.036;5.332;2022-08-20T02:16:41;19.60;97.90
69533;DHT22;56729;52.036;5.332;2022-08-20T02:17:43;19.60;97.90
69533;DHT22;56729;52.036;5.332;2022-08-20T02:18:46;19.60;97.90
69533;DHT22;56729;52.036;5.332;2022-08-20T02:19:59;19.60;98.00
69533;DHT22;56729;52.036;5.332;2022-08-20T02:21:02;19.60;97.90
69533;DHT22;56729;52.036;5.332;2022-08-20T02:22:41;19.60;97.90
69533;DHT22;56729;52.036;5.332;2022-08-20T02:23:50;19.50;97.70
69533;DHT22;56729;52.036;5.332;2022-08-20T02:24:52;19.50;97.80
69533;DHT22;56729;52.036;5.332;2022-08-20T02:25:54;19.50;97.80
69533;DHT22;56729;52.036;5.332;2022-08-20T02:26:56;19.40;97.90
69533;DHT22;56729;52.036;5.332;2022-08-20T02:28:01;19.40;98.00
69533;DHT22;56729;52.036;5.332;2022-08-20T02:29:09;19.40;97.90
69533;DHT22;56729;52.036;5.332;2022-08-20T02:30:15;19.40;97.90
69533;DHT22;56729;52.036;5.332;2022-08-20T02:31:28;19.40;98.10
69533;DHT22;56729;52.036;5.332;2022-08-20T02:32:36;19.40;98.00
69533;DHT22;56729;52.036;5.332;2022-08-20T02:33:38;19.40;98.00
69533;DHT22;56729;52.036;5.332;2022-08-20T02:34:40;19.40;98.00
69533;DHT22;56729;52.036;5.332;2022-08-20T02:35:46;19.40;97.90
69533;DHT22;56729;52.036;5.332;2022-08-20T02:36:49;19.30;97.90
69533;DHT22;56729;52.036;5.332;2022-08-20T02:37:52;19.30;97.90
69533;DHT22;56729;52.036;5.332;2022-08-20T02:38:55;19.30;98.10
69533;DHT22;56729;52.036;5.332;2022-08-20T02:39:58;19.30;98.20
69533;DHT22;56729;52.036;5.332;2022-08-20T02:41:00;19.30;98.30
69533;DHT22;56729;52.036;5.332;2022-08-20T02:42:03;19.40;98.30
69533;DHT22;56729;52.036;5.332;2022-08-20T02:43:05;19.40;98.40
69533;DHT22;56729;52.036;5.332;2022-08-20T02:44:08;19.40;98.30
69533;DHT22;56729;52.036;5.332;2022-08-20T02:45:12;19.40;98.30
69533;DHT22;56729;52.036;5.332;2022-08-20T02:46:19;19.40;98.20
69533;DHT22;56729;52.036;5.332;2022-08-20T02:47:21;19.40;98.20
69533;DHT22;56729;52.036;5.332;2022-08-20T02:48:23;19.50;98.20
69533;DHT22;56729;52.036;5.332;2022-08-20T02:49:25;19.40;98.10
69533;DHT22;56729;52.036;5.332;2022-08-20T02:50:27;19.40;98.00
69533;DHT22;56729;52.036;5.332;2022-08-20T02:51:29;19.50;98.00
69533;DHT22;56729;52.036;5.332;2022-08-20T02:52:31;19.40;97.90
69533;DHT22;56729;52.036;5.332;2022-08-20T02:53:37;19.40;97.90
69533;DHT22;56729;52.036;5.332;2022-08-20T02:54:41;19.40;98.00
69533;DHT22;56729;52.036;5.332;2022-08-20T02:55:45;19.40;98.00
69533;DHT22;56729;52.036;5.332;2022-08-20T02:56:47;19.40;97.90
69533;DHT22;56729;52.036;5.332;2022-08-20T02:57:49;19.40;97.90
69533;DHT22;56729;52.036;5.332;2022-08-20T02:58:54;19.40;98.00
69533;DHT22;56729;52.036;5.332;2022-08-20T02:59:56;19.40;98.00
69533;DHT22;56729;52.036;5.332;2022-08-20T03:00:59;19.40;98.10
69533;DHT22;56729;52.036;5.332;2022-08-20T03:02:02;19.40;98.20
69533;DHT22;56729;52.036;5.332;2022-08-20T03:03:08;19.50;98.20
69533;DHT22;56729;52.036;5.332;2022-08-20T03:04:11;19.50;98.20
69533;DHT22;56729;52.036;5.332;2022-08-20T03:05:13;19.50;98.20
69533;DHT22;56729;52.036;5.332;2022-08-20T03:06:15;19.50;98.10
69533;DHT22;56729;52.036;5.332;2022-08-20T03:07:18;19.50;98.10
69533;DHT22;56729;52.036;5.332;2022-08-20T03:08:21;19.50;98.00
69533;DHT22;56729;52.036;5.332;2022-08-20T03:09:23;19.50;97.90
69533;DHT22;56729;52.036;5.332;2022-08-20T03:10:29;19.50;98.00
69533;DHT22;56729;52.036;5.332;2022-08-20T03:11:32;19.50;98.00
69533;DHT22;56729;52.036;5.332;2022-08-20T03:12:36;19.60;98.10
69533;DHT22;56729;52.036;5.332;2022-08-20T03:13:38;19.60;98.00
69533;DHT22;56729;52.036;5.332;2022-08-20T03:14:40;19.60;97.90
69533;DHT22;56729;52.036;5.332;2022-08-20T03:15:48;19.60;97.90
69533;DHT22;56729;52.036;5.332;2022-08-20T03:16:55;19.60;97.90
69533;DHT22;56729;52.036;5.332;2022-08-20T03:17:58;19.60;97.80
69533;DHT22;56729;52.036;5.332;2022-08-20T03:18:59;19.60;97.80
69533;DHT22;56729;52.036;5.332;2022-08-20T03:20:04;19.60;97.80
69533;DHT22;56729;52.036;5.332;2022-08-20T03:21:07;19.60;97.90
69533;DHT22;56729;52.036;5.332;2022-08-20T03:22:10;19.50;98.00
69533;DHT22;56729;52.036;5.332;2022-08-20T03:23:13;19.60;98.00
69533;DHT22;56729;52.036;5.332;2022-08-20T03:24:15;19.60;98.00
69533;DHT22;56729;52.036;5.332;2022-08-20T03:25:18;19.60;98.00
69533;DHT22;56729;52.036;5.332;2022-08-20T03:26:20;19.60;98.00
69533;DHT22;56729;52.036;5.332;2022-08-20T03:27:22;19.60;98.00
69533;DHT22;56729;52.036;5.332;2022-08-20T03:28:30;19.60;97.90
69533;DHT22;56729;52.036;5.332;2022-08-20T03:29:32;19.60;97.90
69533;DHT22;56729;52.036;5.332;2022-08-20T03:30:36;19.60;97.70
69533;DHT22;56729;52.036;5.332;2022-08-20T03:31:38;19.60;97.60
69533;DHT22;56729;52.036;5.332;2022-08-20T03:32:40;19.50;97.40
69533;DHT22;56729;52.036;5.332;2022-08-20T03:33:42;19.50;97.50
69533;DHT22;56729;52.036;5.332;2022-08-20T03:34:54;19.50;97.60
69533;DHT22;56729;52.036;5.332;2022-08-20T03:35:56;19.50;97.80
69533;DHT22;56729;52.036;5.332;2022-08-20T03:36:58;19.50;97.80
69533;DHT22;56729;52.036;5.332;2022-08-20T03:38:00;19.50;97.80
69533;DHT22;56729;52.036;5.332;2022-08-20T03:39:07;19.50;97.90
69533;DHT22;56729;52.036;5.332;2022-08-20T03:40:18;19.50;97.90
69533;DHT22;56729;52.036;5.332;2022-08-20T03:41:20;19.50;97.90
69533;DHT22;56729;52.036;5.332;2022-08-20T03:42:22;19.50;97.80
69533;DHT22;56729;52.036;5.332;2022-08-20T03:43:24;19.50;97.80
69533;DHT22;56729;52.036;5.332;2022-08-20T03:44:26;19.50;97.80
69533;DHT22;56729;52.036;5.332;2022-08-20T03:45:28;19.50;97.70
69533;DHT22;56729;52.036;5.332;2022-08-20T03:46:30;19.50;97.50
69533;DHT22;56729;52.036;5.332;2022-08-20T03:47:32;19.50;97.50
69533;DHT22;56729;52.036;5.332;2022-08-20T03:48:36;19.50;97.30
69533;DHT22;56729;52.036;5.332;2022-08-20T03:49:39;19.50;97.30
69533;DHT22;56729;52.036;5.332;2022-08-20T03:50:41;19.50;97.30
69533;DHT22;56729;52.036;5.332;2022-08-20T03:51:44;19.40;97.20
69533;DHT22;56729;52.036;5.332;2022-08-20T03:52:59;19.40;97.20
69533;DHT22;56729;52.036;5.332;2022-08-20T03:54:02;19.40;97.30
69533;DHT22;56729;52.036;5.332;2022-08-20T03:55:06;19.40;97.30
69533;DHT22;56729;52.036;5.332;2022-08-20T03:56:08;19.40;97.30
69533;DHT22;56729;52.036;5.332;2022-08-20T03:57:14;19.30;97.10
69533;DHT22;56729;52.036;5.332;2022-08-20T03:58:16;19.30;97.20
69533;DHT22;56729;52.036;5.332;2022-08-20T03:59:18;19.30;97.10
69533;DHT22;56729;52.036;5.332;2022-08-20T04:00:31;19.30;97.10
69533;DHT22;56729;52.036;5.332;2022-08-20T04:01:33;19.20;97.10
69533;DHT22;56729;52.036;5.332;2022-08-20T04:02:47;19.20;97.20
69533;DHT22;56729;52.036;5.332;2022-08-20T04:03:48;19.20;97.20
69533;DHT22;56729;52.036;5.332;2022-08-20T04:04:55;19.20;97.40
69533;DHT22;56729;52.036;5.332;2022-08-20T04:05:57;19.10;97.30
69533;DHT22;56729;52.036;5.332;2022-08-20T04:07:08;19.10;97.40
69533;DHT22;56729;52.036;5.332;2022-08-20T04:08:20;19.10;97.40
69533;DHT22;56729;52.036;5.332;2022-08-20T04:09:23;19.10;97.50
69533;DHT22;56729;52.036;5.332;2022-08-20T04:10:25;19.10;97.50
69533;DHT22;56729;52.036;5.332;2022-08-20T04:11:27;19.10;97.50
69533;DHT22;56729;52.036;5.332;2022-08-20T04:12:29;19.10;97.40
69533;DHT22;56729;52.036;5.332;2022-08-20T04:13:31;19.10;97.30
69533;DHT22;56729;52.036;5.332;2022-08-20T04:14:33;19.10;97.20
69533;DHT22;56729;52.036;5.332;2022-08-20T04:15:39;19.10;97.10
69533;DHT22;56729;52.036;5.332;2022-08-20T04:16:44;19.10;97.00
69533;DHT22;56729;52.036;5.332;2022-08-20T04:17:49;19.10;97.00
69533;DHT22;56729;52.036;5.332;2022-08-20T04:18:51;19.00;97.00
69533;DHT22;56729;52.036;5.332;2022-08-20T04:20:05;19.00;97.20
69533;DHT22;56729;52.036;5.332;2022-08-20T04:21:07;19.00;97.30
69533;DHT22;56729;52.036;5.332;2022-08-20T04:22:09;19.00;97.30
69533;DHT22;56729;52.036;5.332;2022-08-20T04:23:14;19.00;97.10
69533;DHT22;56729;52.036;5.332;2022-08-20T04:24:16;19.00;97.10
69533;DHT22;56729;52.036;5.332;2022-08-20T04:25:33;19.00;97.10
69533;DHT22;56729;52.036;5.332;2022-08-20T04:26:36;18.90;97.20
69533;DHT22;56729;52.036;5.332;2022-08-20T04:27:39;18.90;97.20
69533;DHT22;56729;52.036;5.332;2022-08-20T04:28:41;18.90;97.60
69533;DHT22;56729;52.036;5.332;2022-08-20T04:29:43;18.90;97.20
69533;DHT22;56729;52.036;5.332;2022-08-20T04:30:45;18.90;97.10
69533;DHT22;56729;52.036;5.332;2022-08-20T04:31:52;18.90;97.00
69533;DHT22;56729;52.036;5.332;2022-08-20T04:32:54;18.90;97.10
69533;DHT22;56729;52.036;5.332;2022-08-20T04:33:56;18.90;97.00
69533;DHT22;56729;52.036;5.332;2022-08-20T04:34:58;18.90;97.00
69533;DHT22;56729;52.036;5.332;2022-08-20T04:36:02;18.90;97.00
69533;DHT22;56729;52.036;5.332;2022-08-20T04:37:06;18.90;97.10
69533;DHT22;56729;52.036;5.332;2022-08-20T04:38:19;18.90;97.10
69533;DHT22;56729;52.036;5.332;2022-08-20T04:39:21;18.90;97.20
69533;DHT22;56729;52.036;5.332;2022-08-20T04:40:23;18.90;97.10
69533;DHT22;56729;52.036;5.332;2022-08-20T04:41:43;18.90;97.10
69533;DHT22;56729;52.036;5.332;2022-08-20T04:42:45;18.90;97.00
69533;DHT22;56729;52.036;5.332;2022-08-20T04:43:54;18.90;97.00
69533;DHT22;56729;52.036;5.332;2022-08-20T04:44:56;18.80;96.90
69533;DHT22;56729;52.036;5.332;2022-08-20T04:46:01;18.80;97.00
69533;DHT22;56729;52.036;5.332;2022-08-20T04:47:03;18.80;97.10
69533;DHT22;56729;52.036;5.332;2022-08-20T04:48:08;18.80;97.10
69533;DHT22;56729;52.036;5.332;2022-08-20T04:49:15;18.80;97.10
69533;DHT22;56729;52.036;5.332;2022-08-20T04:50:19;18.80;97.10
69533;DHT22;56729;52.036;5.332;2022-08-20T04:51:21;18.80;97.00
69533;DHT22;56729;52.036;5.332;2022-08-20T04:52:26;18.80;97.00
69533;DHT22;56729;52.036;5.332;2022-08-20T04:53:28;18.80;97.00
69533;DHT22;56729;52.036;5.332;2022-08-20T04:54:30;18.80;97.00
69533;DHT22;56729;52.036;5.332;2022-08-20T04:55:34;18.80;97.00
69533;DHT22;56729;52.036;5.332;2022-08-20T04:56:37;18.80;97.00
69533;DHT22;56729;52.036;5.332;2022-08-20T04:57:40;18.80;97.00
69533;DHT22;56729;52.036;5.332;2022-08-20T04:58:42;18.80;96.90
69533;DHT22;56729;52.036;5.332;2022-08-20T04:59:49;18.70;96.90
69533;DHT22;56729;52.036;5.332;2022-08-20T05:00:55;18.70;96.70
69533;DHT22;56729;52.036;5.332;2022-08-20T05:02:02;18.70;96.80
69533;DHT22;56729;52.036;5.332;2022-08-20T05:03:04;18.70;96.80
69533;DHT22;56729;52.036;5.332;2022-08-20T05:04:07;18.70;96.80
69533;DHT22;56729;52.036;5.332;2022-08-20T05:05:10;18.60;96.90
69533;DHT22;56729;52.036;5.332;2022-08-20T05:06:12;18.60;97.00
69533;DHT22;56729;52.036;5.332;2022-08-20T05:07:15;18.60;97.00
69533;DHT22;56729;52.036;5.332;2022-08-20T05:08:21;18.60;97.00
69533;DHT22;56729;52.036;5.332;2022-08-20T05:09:23;18.60;97.00
69533;DHT22;56729;52.036;5.332;2022-08-20T05:10:26;18.60;96.90
69533;DHT22;56729;52.036;5.332;2022-08-20T05:11:28;18.60;97.00
69533;DHT22;56729;52.036;5.332;2022-08-20T05:12:38;18.60;97.00
69533;DHT22;56729;52.036;5.332;2022-08-20T05:13:41;18.60;97.00
69533;DHT22;56729;52.036;5.332;2022-08-20T05:14:43;18.60;97.00
69533;DHT22;56729;52.036;5.332;2022-08-20T05:15:45;18.60;96.90
69533;DHT22;56729;52.036;5.332;2022-08-20T05:16:49;18.60;96.90
69533;DHT22;56729;52.036;5.332;2022-08-20T05:17:57;18.60;96.90
69533;DHT22;56729;52.036;5.332;2022-08-20T05:19:01;18.60;96.80
69533;DHT22;56729;52.036;5.332;2022-08-20T05:20:06;18.50;96.80
69533;DHT22;56729;52.036;5.332;2022-08-20T05:21:08;18.50;96.90
69533;DHT22;56729;52.036;5.332;2022-08-20T05:22:10;18.50;96.90
69533;DHT22;56729;52.036;5.332;2022-08-20T05:23:14;18.50;96.80
69533;DHT22;56729;52.036;5.332;2022-08-20T05:24:16;18.50;96.90
69533;DHT22;56729;52.036;5.332;2022-08-20T05:25:18;18.50;96.90
69533;DHT22;56729;52.036;5.332;2022-08-20T05:26:23;18.50;96.90
69533;DHT22;56729;52.036;5.332;2022-08-20T05:27:28;18.40;96.90
69533;DHT22;56729;52.036;5.332;2022-08-20T05:28:30;18.40;96.90
69533;DHT22;56729;52.036;5.332;2022-08-20T05:29:37;18.40;96.90
69533;DHT22;56729;52.036;5.332;2022-08-20T05:30:41;18.40;96.90
69533;DHT22;56729;52.036;5.332;2022-08-20T05:31:43;18.40;96.90
69533;DHT22;56729;52.036;5.332;2022-08-20T05:32:45;18.40;96.80
69533;DHT22;56729;52.036;5.332;2022-08-20T05:33:50;18.40;96.90
69533;DHT22;56729;52.036;5.332;2022-08-20T05:34:53;18.40;96.90
69533;DHT22;56729;52.036;5.332;2022-08-20T05:35:56;18.40;96.90
69533;DHT22;56729;52.036;5.332;2022-08-20T05:36:58;18.40;96.90
69533;DHT22;56729;52.036;5.332;2022-08-20T05:38:11;18.40;96.90
69533;DHT22;56729;52.036;5.332;2022-08-20T05:39:16;18.40;97.30
69533;DHT22;56729;52.036;5.332;2022-08-20T05:40:19;18.40;96.90
69533;DHT22;56729;52.036;5.332;2022-08-20T05:41:22;18.40;96.90
69533;DHT22;56729;52.036;5.332;2022-08-20T05:42:30;18.40;96.80
69533;DHT22;56729;52.036;5.332;2022-08-20T05:43:32;18.30;96.80
69533;DHT22;56729;52.036;5.332;2022-08-20T05:44:34;18.30;96.80
69533;DHT22;56729;52.036;5.332;2022-08-20T05:45:40;18.40;96.90
69533;DHT22;56729;52.036;5.332;2022-08-20T05:46:43;18.40;97.00
69533;DHT22;56729;52.036;5.332;2022-08-20T05:47:46;18.30;96.90
69533;DHT22;56729;52.036;5.332;2022-08-20T05:48:57;18.30;96.90
69533;DHT22;56729;52.036;5.332;2022-08-20T05:50:03;18.30;96.90
69533;DHT22;56729;52.036;5.332;2022-08-20T05:51:05;18.30;96.80
69533;DHT22;56729;52.036;5.332;2022-08-20T05:52:10;18.30;96.80
69533;DHT22;56729;52.036;5.332;2022-08-20T05:53:12;18.30;96.80
69533;DHT22;56729;52.036;5.332;2022-08-20T05:54:14;18.30;96.80
69533;DHT22;56729;52.036;5.332;2022-08-20T05:55:18;18.30;96.80
69533;DHT22;56729;52.036;5.332;2022-08-20T05:56:20;18.30;96.80
69533;DHT22;56729;52.036;5.332;2022-08-20T05:57:27;18.30;96.80
69533;DHT22;56729;52.036;5.332;2022-08-20T05:58:30;18.40;96.90
69533;DHT22;56729;52.036;5.332;2022-08-20T05:59:33;18.30;96.90
69533;DHT22;56729;52.036;5.332;2022-08-20T06:00:37;18.30;96.90
69533;DHT22;56729;52.036;5.332;2022-08-20T06:01:40;18.30;96.90
69533;DHT22;56729;52.036;5.332;2022-08-20T06:02:42;18.40;97.00
69533;DHT22;56729;52.036;5.332;2022-08-20T06:04:03;18.40;96.90
69533;DHT22;56729;52.036;5.332;2022-08-20T06:05:24;18.30;96.90
69533;DHT22;56729;52.036;5.332;2022-08-20T06:06:26;18.30;96.90
69533;DHT22;56729;52.036;5.332;2022-08-20T06:07:47;18.30;96.90
69533;DHT22;56729;52.036;5.332;2022-08-20T06:08:51;18.30;97.00
69533;DHT22;56729;52.036;5.332;2022-08-20T06:09:54;18.40;97.00
69533;DHT22;56729;52.036;5.332;2022-08-20T06:10:56;18.40;97.00
69533;DHT22;56729;52.036;5.332;2022-08-20T06:12:04;18.40;97.00
69533;DHT22;56729;52.036;5.332;2022-08-20T06:13:06;18.40;97.00
69533;DHT22;56729;52.036;5.332;2022-08-20T06:14:15;18.40;97.00
69533;DHT22;56729;52.036;5.332;2022-08-20T06:15:17;18.40;97.00
69533;DHT22;56729;52.036;5.332;2022-08-20T06:16:19;18.40;97.00
69533;DHT22;56729;52.036;5.332;2022-08-20T06:17:21;18.40;97.00
69533;DHT22;56729;52.036;5.332;2022-08-20T06:18:24;18.40;97.00
69533;DHT22;56729;52.036;5.332;2022-08-20T06:19:29;18.40;97.00
69533;DHT22;56729;52.036;5.332;2022-08-20T06:20:35;18.40;97.00
69533;DHT22;56729;52.036;5.332;2022-08-20T06:21:39;18.40;97.00
69533;DHT22;56729;52.036;5.332;2022-08-20T06:22:41;18.40;97.00
69533;DHT22;56729;52.036;5.332;2022-08-20T06:23:43;18.40;97.00
69533;DHT22;56729;52.036;5.332;2022-08-20T06:25:00;18.50;97.10
69533;DHT22;56729;52.036;5.332;2022-08-20T06:26:02;18.50;97.60
69533;DHT22;56729;52.036;5.332;2022-08-20T06:27:05;18.50;97.10
69533;DHT22;56729;52.036;5.332;2022-08-20T06:28:07;18.50;97.10
69533;DHT22;56729;52.036;5.332;2022-08-20T06:29:09;18.50;97.00
69533;DHT22;56729;52.036;5.332;2022-08-20T06:30:13;18.50;97.10
69533;DHT22;56729;52.036;5.332;2022-08-20T06:31:16;18.50;97.10
69533;DHT22;56729;52.036;5.332;2022-08-20T06:32:18;18.50;97.20
69533;DHT22;56729;52.036;5.332;2022-08-20T06:33:33;18.50;97.20
69533;DHT22;56729;52.036;5.332;2022-08-20T06:34:35;18.50;97.20
69533;DHT22;56729;52.036;5.332;2022-08-20T06:35:38;18.50;97.60
69533;DHT22;56729;52.036;5.332;2022-08-20T06:36:40;18.50;97.20
69533;DHT22;56729;52.036;5.332;2022-08-20T06:37:42;18.50;97.20
69533;DHT22;56729;52.036;5.332;2022-08-20T06:38:44;18.60;97.20
69533;DHT22;56729;52.036;5.332;2022-08-20T06:39:47;18.60;97.20
69533;DHT22;56729;52.036;5.332;2022-08-20T06:40:49;18.60;97.10
69533;DHT22;56729;52.036;5.332;2022-08-20T06:41:50;18.60;97.10
69533;DHT22;56729;52.036;5.332;2022-08-20T06:42:54;18.60;97.10
69533;DHT22;56729;52.036;5.332;2022-08-20T06:43:57;18.60;97.10
69533;DHT22;56729;52.036;5.332;2022-08-20T06:44:59;18.60;97.10
69533;DHT22;56729;52.036;5.332;2022-08-20T06:46:01;18.60;97.10
69533;DHT22;56729;52.036;5.332;2022-08-20T06:47:03;18.60;97.00
69533;DHT22;56729;52.036;5.332;2022-08-20T06:48:08;18.60;97.00
69533;DHT22;56729;52.036;5.332;2022-08-20T06:49:15;18.60;97.00
69533;DHT22;56729;52.036;5.332;2022-08-20T06:50:20;18.60;97.00
69533;DHT22;56729;52.036;5.332;2022-08-20T06:51:22;18.60;97.00